createdAt,value
2023-10-12T00:00:35.134Z,14.07
2023-10-12T00:03:39.310Z,14.07
2023-10-12T00:06:45.259Z,14.08
2023-10-12T00:09:49.613Z,14.06
2023-10-12T00:12:57.150Z,14.07
2023-10-12T00:16:00.251Z,14.05
2023-10-12T00:19:03.085Z,14.04
2023-10-12T00:22:10.540Z,14.01
2023-10-12T00:25:17.390Z,14.01
2023-10-12T00:28:22.143Z,14.01
2023-10-12T00:31:26.598Z,13.92
2023-10-12T00:34:35.315Z,13.90
2023-10-12T00:37:42.146Z,13.85
2023-10-12T00:40:52.864Z,13.71
2023-10-12T00:44:17.338Z,13.80
2023-10-12T00:47:30.678Z,13.77
2023-10-12T00:50:33.210Z,13.68
2023-10-12T00:53:38.383Z,13.69
2023-10-12T00:56:44.925Z,13.42
2023-10-12T00:59:48.378Z,13.68
2023-10-12T01:03:08.654Z,13.68
2023-10-12T01:06:11.737Z,13.65
2023-10-12T01:09:21.493Z,13.60
2023-10-12T01:12:31.518Z,13.61
2023-10-12T01:15:34.279Z,13.47
2023-10-12T01:18:39.446Z,13.56
2023-10-12T01:21:44.358Z,13.55
2023-10-12T01:24:53.116Z,13.34
2023-10-12T01:27:56.614Z,13.41
2023-10-12T01:30:59.540Z,13.40
2023-10-12T01:34:02.128Z,13.38
2023-10-12T01:37:21.740Z,13.27
2023-10-12T01:40:26.228Z,13.26
2023-10-12T01:43:30.063Z,13.26
2023-10-12T01:46:33.837Z,13.22
2023-10-12T01:49:38.192Z,13.16
2023-10-12T01:52:40.973Z,13.12
2023-10-12T01:55:44.973Z,12.65
2023-10-12T01:58:51.956Z,12.91
2023-10-12T02:02:07.303Z,12.84
2023-10-12T02:05:11.071Z,12.75
2023-10-12T02:08:18.146Z,12.72
2023-10-12T02:11:21.443Z,12.67
2023-10-12T02:14:33.837Z,12.57
2023-10-12T02:17:36.910Z,12.46
2023-10-12T02:20:49.284Z,12.40
2023-10-12T02:23:58.088Z,12.33
2023-10-12T02:27:01.851Z,12.25
2023-10-12T02:30:08.069Z,12.18
2023-10-12T02:33:17.916Z,12.03
2023-10-12T02:36:20.629Z,11.98
2023-10-12T02:39:24.038Z,11.92
2023-10-12T02:42:43.575Z,11.90
2023-10-12T02:45:50.495Z,11.44
2023-10-12T02:48:53.296Z,11.76
2023-10-12T02:51:56.237Z,11.76
2023-10-12T02:55:08.229Z,11.77
2023-10-12T02:58:21.387Z,11.72
2023-10-12T03:01:24.085Z,11.70
2023-10-12T03:04:30.040Z,11.68
2023-10-12T03:07:32.854Z,11.66
2023-10-12T03:10:46.325Z,11.62
2023-10-12T03:14:01.109Z,11.59
2023-10-12T03:17:10.398Z,11.56
2023-10-12T03:20:31.569Z,11.12
2023-10-12T03:23:34.897Z,11.47
2023-10-12T03:26:37.444Z,11.42
2023-10-12T03:30:02.371Z,11.35
2023-10-12T03:33:10.749Z,11.31
2023-10-12T03:36:26.967Z,11.25
2023-10-12T03:39:31.382Z,11.28
2023-10-12T03:42:34.286Z,11.28
2023-10-12T03:45:50.872Z,11.24
2023-10-12T03:49:12.940Z,11.23
2023-10-12T03:52:16.138Z,11.17
2023-10-12T03:55:28.928Z,11.16
2023-10-12T03:58:38.963Z,11.11
2023-10-12T04:01:45.212Z,11.11
2023-10-12T04:05:01.854Z,11.04
2023-10-12T04:08:07.730Z,11.01
2023-10-12T04:11:19.264Z,11.00
2023-10-12T04:14:24.638Z,10.94
2023-10-12T04:17:27.567Z,10.97
2023-10-12T04:20:31.049Z,10.96
2023-10-12T04:23:33.952Z,10.97
2023-10-12T04:26:37.188Z,10.97
2023-10-12T04:29:40.398Z,11.00
2023-10-12T04:32:52.097Z,10.95
2023-10-12T04:36:15.266Z,10.93
2023-10-12T04:39:18.470Z,10.83
2023-10-12T04:42:35.345Z,10.81
2023-10-12T04:45:58.370Z,10.75
2023-10-12T04:49:18.168Z,10.76
2023-10-12T04:52:27.337Z,10.75
2023-10-12T04:55:30.394Z,10.72
2023-10-12T04:58:33.554Z,10.69
2023-10-12T05:02:02.524Z,10.72
2023-10-12T05:05:08.185Z,10.83
2023-10-12T05:08:11.233Z,10.93
2023-10-12T05:11:13.829Z,11.00
2023-10-12T05:14:16.731Z,10.94
2023-10-12T05:17:19.363Z,10.95
2023-10-12T05:20:25.232Z,10.98
2023-10-12T05:23:28.263Z,11.10
2023-10-12T05:26:31.333Z,11.19
2023-10-12T05:29:39.708Z,11.19
2023-10-12T05:32:45.555Z,11.24
2023-10-12T05:35:53.744Z,11.19
2023-10-12T05:39:14.903Z,11.09
2023-10-12T05:42:21.279Z,11.02
2023-10-12T05:45:32.202Z,11.78
2023-10-12T05:48:35.171Z,11.35
2023-10-12T05:51:38.786Z,11.28
2023-10-12T05:54:41.451Z,11.17
2023-10-12T05:57:44.775Z,11.11
2023-10-12T06:00:48.450Z,11.12
2023-10-12T06:03:57.994Z,11.09
2023-10-12T06:07:00.828Z,11.07
2023-10-12T06:10:10.378Z,11.01
2023-10-12T06:13:15.538Z,11.05
2023-10-12T06:16:22.626Z,11.05
2023-10-12T06:19:28.438Z,10.98
2023-10-12T06:22:34.220Z,11.03
2023-10-12T06:25:50.164Z,11.14
2023-10-12T06:29:03.543Z,11.19
2023-10-12T06:32:16.656Z,11.24
2023-10-12T06:35:19.605Z,11.25
2023-10-12T06:38:37.348Z,11.42
2023-10-12T06:41:40.374Z,11.52
2023-10-12T06:44:51.615Z,11.61
2023-10-12T06:48:10.446Z,11.77
2023-10-12T06:51:17.395Z,11.87
2023-10-12T06:54:39.250Z,11.99
2023-10-12T06:57:44.651Z,12.05
2023-10-12T07:01:11.187Z,12.24
2023-10-12T07:04:14.709Z,12.38
2023-10-12T07:07:17.800Z,12.60
2023-10-12T07:10:29.778Z,12.78
2023-10-12T07:17:38.420Z,13.48
2023-10-12T07:20:41.358Z,13.51
2023-10-12T07:23:43.944Z,13.68
2023-10-12T07:26:49.885Z,13.77
2023-10-12T07:30:14.791Z,13.86
2023-10-12T07:33:17.680Z,13.79
2023-10-12T07:36:20.383Z,14.11
2023-10-12T07:39:43.956Z,14.33
2023-10-12T07:42:49.832Z,14.47
2023-10-12T07:45:54.072Z,14.50
2023-10-12T07:49:11.932Z,14.61
2023-10-12T07:52:23.313Z,14.89
2023-10-12T07:55:29.853Z,14.88
2023-10-12T07:58:32.796Z,15.15
2023-10-12T08:01:35.444Z,15.43
2023-10-12T08:04:40.466Z,15.53
2023-10-12T08:08:01.833Z,15.62
2023-10-12T08:11:11.785Z,15.78
2023-10-12T08:14:40.616Z,16.15
2023-10-12T08:17:47.188Z,16.35
2023-10-12T08:20:59.018Z,16.62
2023-10-12T08:24:15.477Z,16.83
2023-10-12T08:27:20.162Z,16.95
2023-10-12T08:30:25.103Z,17.12
2023-10-12T08:33:46.565Z,17.38
2023-10-12T08:37:18.579Z,17.58
2023-10-12T08:40:23.033Z,17.78
2023-10-12T08:43:44.999Z,17.90
2023-10-12T08:46:51.686Z,18.27
2023-10-12T08:49:55.260Z,18.59
2023-10-12T08:53:04.994Z,18.73
2023-10-12T08:56:10.047Z,19.13
2023-10-12T08:59:13.429Z,19.26
2023-10-12T09:02:22.339Z,19.61
2023-10-12T09:05:26.910Z,20.01
2023-10-12T09:08:29.854Z,20.22
2023-10-12T09:11:35.630Z,20.27
2023-10-12T09:14:44.925Z,20.75
2023-10-12T09:17:50.488Z,20.97
2023-10-12T09:21:03.365Z,21.24
2023-10-12T09:24:07.927Z,21.65
2023-10-12T09:27:14.604Z,21.66
2023-10-12T09:30:17.553Z,21.93
2023-10-12T09:33:38.588Z,21.77
2023-10-12T09:36:45.046Z,22.42
2023-10-12T09:39:48.501Z,22.77
2023-10-12T09:42:55.905Z,23.20
2023-10-12T09:46:07.052Z,23.43
2023-10-12T09:49:22.345Z,23.36
2023-10-12T09:52:26.624Z,23.65
2023-10-12T09:55:37.829Z,24.08
2023-10-12T09:59:06.952Z,23.82
2023-10-12T10:02:29.306Z,24.23
2023-10-12T10:05:56.093Z,24.76
2023-10-12T10:09:30.950Z,24.96
2023-10-12T10:12:37.942Z,25.33
2023-10-12T10:16:00.568Z,25.60
2023-10-12T10:19:15.769Z,25.73
2023-10-12T10:22:19.741Z,26.08
2023-10-12T10:25:24.780Z,26.23
2023-10-12T10:28:29.148Z,26.36
2023-10-12T10:31:36.652Z,26.38
2023-10-12T10:34:39.552Z,26.99
2023-10-12T10:38:00.021Z,27.10
2023-10-12T10:41:07.686Z,27.78
2023-10-12T10:44:16.772Z,28.11
2023-10-12T10:47:22.717Z,28.21
2023-10-12T10:50:26.709Z,28.14
2023-10-12T10:53:32.460Z,28.45
2023-10-12T10:56:36.479Z,28.49
2023-10-12T10:59:39.603Z,28.56
2023-10-12T11:02:44.745Z,28.56
2023-10-12T11:05:48.048Z,28.43
2023-10-12T11:09:03.313Z,28.61
2023-10-12T11:12:05.980Z,28.58
2023-10-12T11:15:10.675Z,28.54
2023-10-12T11:18:18.934Z,28.77
2023-10-12T11:21:22.795Z,28.96
2023-10-12T11:24:25.633Z,29.14
2023-10-12T11:27:36.124Z,29.23
2023-10-12T11:30:43.555Z,29.35
2023-10-12T11:33:52.528Z,29.27
2023-10-12T11:37:02.822Z,29.52
2023-10-12T11:40:08.452Z,29.37
2023-10-12T11:43:11.472Z,29.63
2023-10-12T11:46:16.196Z,29.49
2023-10-12T11:49:20.546Z,29.64
2023-10-12T11:52:34.227Z,29.77
2023-10-12T11:55:41.376Z,29.69
2023-10-12T11:58:49.605Z,29.74
2023-10-12T12:02:07.838Z,29.79
2023-10-12T12:05:13.093Z,29.58
2023-10-12T12:08:15.798Z,29.61
2023-10-12T12:11:22.490Z,29.70
2023-10-12T12:14:25.126Z,29.72
2023-10-12T12:17:28.349Z,29.47
2023-10-12T12:20:39.605Z,29.22
2023-10-12T12:23:42.566Z,29.11
2023-10-12T12:26:52.037Z,29.54
2023-10-12T12:30:06.374Z,29.77
2023-10-12T12:33:18.903Z,29.81
2023-10-12T12:36:24.352Z,29.14
2023-10-12T12:39:33.716Z,28.96
2023-10-12T12:42:36.467Z,29.13
2023-10-12T12:45:39.115Z,29.11
2023-10-12T12:48:46.863Z,28.99
2023-10-12T12:51:51.278Z,28.99
2023-10-12T12:54:54.330Z,28.76
2023-10-12T12:58:00.327Z,28.78
2023-10-12T13:01:04.490Z,28.29
2023-10-12T13:04:09.934Z,28.21
2023-10-12T13:07:16.252Z,27.98
2023-10-12T13:10:20.186Z,27.80
2023-10-12T13:13:23.397Z,27.71
2023-10-12T13:16:26.059Z,27.67
2023-10-12T13:19:32.259Z,27.44
2023-10-12T13:22:37.197Z,27.31
2023-10-12T13:25:41.042Z,26.72
2023-10-12T13:28:44.096Z,26.16
2023-10-12T13:31:48.228Z,26.23
2023-10-12T13:34:53.028Z,26.13
2023-10-12T13:37:59.491Z,26.18
2023-10-12T13:41:04.703Z,26.19
2023-10-12T13:44:07.755Z,26.12
2023-10-12T13:47:10.347Z,25.58
2023-10-12T13:50:13.676Z,25.43
2023-10-12T13:53:16.760Z,25.24
2023-10-12T13:56:25.893Z,24.86
2023-10-12T13:59:29.141Z,24.64
2023-10-12T14:02:32.272Z,24.60
2023-10-12T14:05:35.257Z,24.54
2023-10-12T14:08:41.366Z,24.09
2023-10-12T14:11:48.619Z,24.22
2023-10-12T14:14:51.359Z,24.24
2023-10-12T14:17:58.010Z,24.12
2023-10-12T14:21:00.636Z,24.03
2023-10-12T14:24:04.318Z,23.95
2023-10-12T14:27:07.907Z,23.88
2023-10-12T14:30:19.860Z,23.83
2023-10-12T14:33:22.821Z,23.74
2023-10-12T14:36:25.911Z,23.61
2023-10-12T14:39:31.312Z,23.47
2023-10-12T14:42:37.869Z,23.39
2023-10-12T14:45:49.917Z,23.28
2023-10-12T14:48:53.904Z,23.20
2023-10-12T14:51:57.596Z,23.11
2023-10-12T14:55:00.554Z,22.89
2023-10-12T14:58:03.510Z,22.75
2023-10-12T15:01:11.946Z,22.63
2023-10-12T15:04:14.890Z,22.45
2023-10-12T15:07:18.996Z,22.32
2023-10-12T15:10:21.917Z,22.19
2023-10-12T15:13:27.198Z,22.11
2023-10-12T15:16:32.269Z,21.96
2023-10-12T15:19:35.656Z,21.80
2023-10-12T15:22:38.397Z,21.74
2023-10-12T15:25:41.244Z,21.55
2023-10-12T15:28:53.069Z,21.40
2023-10-12T15:31:57.437Z,21.29
2023-10-12T15:35:00.013Z,20.89
2023-10-12T15:38:03.587Z,20.99
2023-10-12T15:41:07.445Z,20.84
2023-10-12T15:44:10.293Z,20.66
2023-10-12T15:47:12.868Z,20.50
2023-10-12T15:50:16.167Z,20.39
2023-10-12T15:53:22.359Z,20.26
2023-10-12T15:56:26.517Z,20.13
2023-10-12T15:59:29.291Z,20.03
2023-10-12T16:02:34.010Z,19.94
2023-10-12T16:05:37.711Z,19.82
2023-10-12T16:08:40.639Z,19.68
2023-10-12T16:11:44.022Z,19.59
2023-10-12T16:14:53.737Z,19.47
2023-10-12T16:17:59.177Z,19.66
2023-10-12T16:21:09.933Z,19.45
2023-10-12T16:24:13.940Z,19.27
2023-10-12T16:27:18.813Z,19.39
2023-10-12T16:30:21.820Z,19.26
2023-10-12T16:33:24.325Z,19.13
2023-10-12T16:36:27.332Z,18.97
2023-10-12T16:39:30.972Z,18.90
2023-10-12T16:42:37.578Z,18.70
2023-10-12T16:45:40.351Z,18.74
2023-10-12T16:48:43.828Z,18.67
2023-10-12T16:51:47.934Z,18.57
2023-10-12T16:54:51.130Z,18.50
2023-10-12T16:57:53.679Z,18.41
2023-10-12T17:00:57.387Z,18.34
2023-10-12T17:04:01.504Z,18.28
2023-10-12T17:07:04.522Z,18.23
2023-10-12T17:10:18.551Z,18.17
2023-10-12T17:13:24.425Z,18.12
2023-10-12T17:16:31.450Z,18.07
2023-10-12T17:19:36.126Z,18.06
2023-10-12T17:22:39.797Z,18.04
2023-10-12T17:25:46.222Z,18.05
2023-10-12T17:28:49.248Z,17.98
2023-10-12T17:31:52.583Z,18.04
2023-10-12T17:34:55.238Z,18.07
2023-10-12T17:37:58.249Z,18.06
2023-10-12T17:41:01.503Z,18.07
2023-10-12T17:44:04.705Z,18.03
2023-10-12T17:47:07.631Z,18.02
2023-10-12T17:50:14.939Z,18.07
2023-10-12T17:53:20.438Z,17.99
2023-10-12T17:56:25.961Z,17.97
2023-10-12T17:59:28.837Z,18.00
2023-10-12T18:02:32.043Z,18.05
2023-10-12T18:05:36.814Z,18.04
2023-10-12T18:08:42.272Z,18.00
2023-10-12T18:11:45.887Z,17.90
2023-10-12T18:14:49.054Z,17.81
2023-10-12T18:17:52.719Z,17.76
2023-10-12T18:20:57.235Z,17.70
2023-10-12T18:24:03.297Z,17.65
2023-10-12T18:27:09.805Z,17.57
2023-10-12T18:30:14.924Z,17.54
2023-10-12T18:33:18.007Z,17.50
2023-10-12T18:36:23.167Z,17.48
2023-10-12T18:39:28.207Z,17.43
2023-10-12T18:42:31.613Z,17.40
2023-10-12T18:45:34.541Z,17.37
2023-10-12T18:48:38.905Z,17.41
2023-10-12T18:51:42.545Z,17.39
2023-10-12T18:54:45.954Z,17.36
2023-10-12T18:57:51.015Z,17.33
2023-10-12T19:00:56.233Z,17.28
2023-10-12T19:04:00.902Z,17.27
2023-10-12T19:07:04.179Z,17.23
2023-10-12T19:10:08.305Z,17.11
2023-10-12T19:13:23.401Z,17.21
2023-10-12T19:16:27.479Z,17.19
2023-10-12T19:19:31.572Z,17.20
2023-10-12T19:22:34.813Z,17.22
2023-10-12T19:25:38.418Z,17.28
2023-10-12T19:28:41.678Z,17.29
2023-10-12T19:31:44.791Z,17.24
2023-10-12T19:34:47.869Z,17.30
2023-10-12T19:37:54.412Z,17.35
2023-10-12T19:41:07.628Z,17.38
2023-10-12T19:44:13.645Z,17.39
2023-10-12T19:47:17.898Z,17.45
2023-10-12T19:50:22.085Z,17.37
2023-10-12T19:53:24.621Z,17.54
2023-10-12T19:56:27.837Z,17.55
2023-10-12T19:59:30.687Z,17.55
2023-10-12T20:02:34.387Z,17.45
2023-10-12T20:05:38.908Z,17.51
2023-10-12T20:08:41.504Z,17.56
2023-10-12T20:11:44.347Z,17.62
2023-10-12T20:14:47.265Z,17.59
2023-10-12T20:17:50.848Z,17.56
2023-10-12T20:20:53.689Z,17.53
2023-10-12T20:23:57.505Z,17.55
2023-10-12T20:27:00.829Z,17.49
2023-10-12T20:30:05.113Z,17.44
2023-10-12T20:33:08.273Z,17.53
2023-10-12T20:36:12.192Z,17.47
2023-10-12T20:39:15.120Z,17.37
2023-10-12T20:42:18.105Z,17.40
2023-10-12T20:45:21.568Z,17.26
2023-10-12T20:48:27.535Z,17.29
2023-10-12T20:51:30.807Z,17.24
2023-10-12T20:54:42.644Z,17.14
2023-10-12T20:57:45.823Z,17.08
2023-10-12T21:00:58.495Z,17.01
2023-10-12T21:04:04.885Z,17.02
2023-10-12T21:10:15.138Z,17.07
2023-10-12T21:13:21.171Z,17.09
2023-10-12T21:16:30.778Z,17.11
2023-10-12T21:19:46.817Z,17.15
2023-10-12T21:22:53.792Z,17.12
2023-10-12T21:26:02.973Z,17.19
2023-10-12T21:29:09.131Z,17.24
2023-10-12T21:32:14.777Z,17.24
2023-10-12T21:35:22.808Z,17.18
2023-10-12T21:38:25.746Z,17.19
2023-10-12T21:41:34.930Z,17.16
2023-10-12T21:44:41.864Z,17.12
2023-10-12T21:47:45.463Z,17.15
2023-10-12T21:50:48.452Z,17.19
2023-10-12T21:53:54.437Z,17.22
2023-10-12T21:56:57.438Z,17.18
2023-10-12T22:00:00.445Z,17.12
2023-10-12T22:03:05.542Z,17.14
2023-10-12T22:06:16.699Z,17.12
2023-10-12T22:09:44.658Z,17.08
2023-10-12T22:12:48.408Z,17.15
2023-10-12T22:15:55.823Z,17.15
2023-10-12T22:19:10.108Z,17.12
2023-10-12T22:22:13.120Z,17.10
2023-10-12T22:25:16.348Z,17.14
2023-10-12T22:28:22.234Z,17.17
2023-10-12T22:31:25.227Z,17.17
2023-10-12T22:34:31.221Z,17.15
2023-10-12T22:37:34.457Z,17.17
2023-10-12T22:40:37.235Z,17.15
2023-10-12T22:43:40.161Z,17.16
2023-10-12T22:46:45.731Z,17.15
2023-10-12T22:49:48.867Z,17.12
2023-10-12T22:52:51.733Z,17.10
2023-10-12T22:55:54.595Z,17.04
2023-10-12T22:58:57.196Z,17.00
2023-10-12T23:02:00.576Z,16.88
2023-10-12T23:05:06.072Z,16.88
2023-10-12T23:08:09.429Z,16.84
2023-10-12T23:11:21.565Z,16.80
2023-10-12T23:14:25.349Z,16.76
2023-10-12T23:17:28.722Z,16.75
2023-10-12T23:20:37.852Z,16.71
2023-10-12T23:23:42.291Z,16.64
2023-10-12T23:26:45.118Z,16.59
2023-10-12T23:29:48.095Z,16.65
2023-10-12T23:32:51.844Z,16.60
2023-10-12T23:35:55.914Z,16.55
2023-10-12T23:39:02.513Z,16.50
2023-10-12T23:42:08.911Z,16.47
2023-10-12T23:45:36.193Z,16.46
2023-10-12T23:48:57.537Z,16.51
2023-10-12T23:52:00.636Z,16.54
2023-10-12T23:55:10.311Z,16.53
2023-10-12T23:58:16.213Z,16.47
